Kezdőlap
METAR-TAF:

METAR-TAF

Repülőterek :

Los Ángeles, Chile

földrajzi szélesség: 37-24-07S, földrajzi hosszúság: 072-25-32W, magasság: 114 m

Jelenlegi meteorológiai megfigyelések

A jelentés 2 órával és 13 perccel ezelõtt készült, 21:00 UTC
Északi szél 2 kt
Hőmérséklet 15°C
Páratartalom 82%
Légköri nyomás 1015 hPa
Látótávolság: 8000 m
Szakadozott felhőzet 2000 lábon
Borult 6000 lábon
enyhe esõ

METAR: SCGE 232100Z 36002KT 8000 -RA BKN020 OVC060 15/12 Q1015

Idő: 20:13 (23:13 UTC)


TAF: hiányzik

Meteorológiai megfigyelések és előrejelzések több, mint 4000 repülőtéren (METAR és TAF jelentéseket).

A térképen piros és sárga pontok jelzik az elérhető meteorológiai állomásokat.

Mozgassa az egeret a pont fölött, hogy megjelenjen az állomás neve.

Azután kattintson az időjárási megfigyelések és előrejelzések megtekintéséhez.

A térkép megváltoztatása: kattintson a fekete keresztel jelölt zöld gombra ráközelítéshez, a vonallal jelölt zöld gombra távolításhoz, vagy a zöld nyilakra a szomszédos térképek eléréséhez.


METAR-TAF: